sensor_id;sensor_type;location;lat;lon;timestamp;temperature;humidity
26691;DHT22;14307;51.718;8.938;2023-11-22T00:00:59;2.10;99.90
26691;DHT22;14307;51.718;8.938;2023-11-22T00:03:26;2.10;99.90
26691;DHT22;14307;51.718;8.938;2023-11-22T00:05:53;2.10;99.90
26691;DHT22;14307;51.718;8.938;2023-11-22T00:08:19;2.00;99.90
26691;DHT22;14307;51.718;8.938;2023-11-22T00:10:46;2.00;99.90
26691;DHT22;14307;51.718;8.938;2023-11-22T00:13:14;2.00;99.90
26691;DHT22;14307;51.718;8.938;2023-11-22T00:15:41;1.90;99.90
26691;DHT22;14307;51.718;8.938;2023-11-22T00:18:07;1.90;99.90
26691;DHT22;14307;51.718;8.938;2023-11-22T00:20:34;1.80;99.90
26691;DHT22;14307;51.718;8.938;2023-11-22T00:23:01;1.80;99.90
26691;DHT22;14307;51.718;8.938;2023-11-22T00:25:30;1.90;99.90
26691;DHT22;14307;51.718;8.938;2023-11-22T00:27:56;1.90;99.90
26691;DHT22;14307;51.718;8.938;2023-11-22T00:30:23;2.00;99.90
26691;DHT22;14307;51.718;8.938;2023-11-22T00:32:51;2.10;99.90
26691;DHT22;14307;51.718;8.938;2023-11-22T00:35:18;2.20;99.90
26691;DHT22;14307;51.718;8.938;2023-11-22T00:37:45;2.10;99.90
26691;DHT22;14307;51.718;8.938;2023-11-22T00:40:12;2.10;99.90
26691;DHT22;14307;51.718;8.938;2023-11-22T00:42:40;2.00;99.90
26691;DHT22;14307;51.718;8.938;2023-11-22T00:45:10;2.00;99.90
26691;DHT22;14307;51.718;8.938;2023-11-22T00:47:37;2.00;99.90
26691;DHT22;14307;51.718;8.938;2023-11-22T00:50:04;1.90;99.90
26691;DHT22;14307;51.718;8.938;2023-11-22T00:52:31;1.80;99.90
26691;DHT22;14307;51.718;8.938;2023-11-22T00:54:58;1.70;99.90
26691;DHT22;14307;51.718;8.938;2023-11-22T00:57:26;1.80;99.90
26691;DHT22;14307;51.718;8.938;2023-11-22T00:59:57;1.70;99.90
26691;DHT22;14307;51.718;8.938;2023-11-22T01:02:24;1.60;99.90
26691;DHT22;14307;51.718;8.938;2023-11-22T01:04:50;1.60;99.90
26691;DHT22;14307;51.718;8.938;2023-11-22T01:07:17;1.60;99.90
26691;DHT22;14307;51.718;8.938;2023-11-22T01:09:44;1.60;99.90
26691;DHT22;14307;51.718;8.938;2023-11-22T01:12:11;1.40;99.90
26691;DHT22;14307;51.718;8.938;2023-11-22T01:14:39;1.50;99.90
26691;DHT22;14307;51.718;8.938;2023-11-22T01:17:06;1.40;99.90
26691;DHT22;14307;51.718;8.938;2023-11-22T01:19:34;1.40;99.90
26691;DHT22;14307;51.718;8.938;2023-11-22T01:22:01;1.30;99.90
26691;DHT22;14307;51.718;8.938;2023-11-22T01:24:28;1.20;99.90
26691;DHT22;14307;51.718;8.938;2023-11-22T01:26:55;1.20;99.90
26691;DHT22;14307;51.718;8.938;2023-11-22T01:29:23;1.10;99.90
26691;DHT22;14307;51.718;8.938;2023-11-22T01:31:50;1.00;99.90
26691;DHT22;14307;51.718;8.938;2023-11-22T01:34:17;0.90;99.90
26691;DHT22;14307;51.718;8.938;2023-11-22T01:36:44;0.80;99.90
26691;DHT22;14307;51.718;8.938;2023-11-22T01:39:12;0.80;99.90
26691;DHT22;14307;51.718;8.938;2023-11-22T01:41:44;0.80;99.90
26691;DHT22;14307;51.718;8.938;2023-11-22T01:44:11;0.70;99.90
26691;DHT22;14307;51.718;8.938;2023-11-22T01:46:39;0.60;99.90
26691;DHT22;14307;51.718;8.938;2023-11-22T01:49:05;0.60;99.90
26691;DHT22;14307;51.718;8.938;2023-11-22T01:51:34;0.70;99.90
26691;DHT22;14307;51.718;8.938;2023-11-22T01:54:01;0.60;99.90
26691;DHT22;14307;51.718;8.938;2023-11-22T01:56:28;0.60;99.90
26691;DHT22;14307;51.718;8.938;2023-11-22T01:58:56;0.50;99.90
26691;DHT22;14307;51.718;8.938;2023-11-22T02:01:28;0.50;99.90
26691;DHT22;14307;51.718;8.938;2023-11-22T02:03:55;0.40;99.90
26691;DHT22;14307;51.718;8.938;2023-11-22T02:06:22;0.30;99.90
26691;DHT22;14307;51.718;8.938;2023-11-22T02:08:50;0.30;99.90
26691;DHT22;14307;51.718;8.938;2023-11-22T02:11:18;0.20;99.90
26691;DHT22;14307;51.718;8.938;2023-11-22T02:13:49;0.20;99.90
26691;DHT22;14307;51.718;8.938;2023-11-22T02:16:17;0.30;99.90
26691;DHT22;14307;51.718;8.938;2023-11-22T02:18:49;0.30;99.90
26691;DHT22;14307;51.718;8.938;2023-11-22T02:21:19;0.10;99.90
26691;DHT22;14307;51.718;8.938;2023-11-22T02:23:48;0.10;99.90
26691;DHT22;14307;51.718;8.938;2023-11-22T02:26:16;0.00;99.90
26691;DHT22;14307;51.718;8.938;2023-11-22T02:28:45;0.00;99.90
26691;DHT22;14307;51.718;8.938;2023-11-22T02:31:12;0.00;99.90
26691;DHT22;14307;51.718;8.938;2023-11-22T02:33:39;-0.10;99.90
26691;DHT22;14307;51.718;8.938;2023-11-22T02:36:06;-0.10;99.90
26691;DHT22;14307;51.718;8.938;2023-11-22T02:38:34;0.10;99.90
26691;DHT22;14307;51.718;8.938;2023-11-22T02:41:01;0.20;99.90
26691;DHT22;14307;51.718;8.938;2023-11-22T02:43:30;0.20;99.90
26691;DHT22;14307;51.718;8.938;2023-11-22T02:45:57;-0.10;99.90
26691;DHT22;14307;51.718;8.938;2023-11-22T02:48:24;-0.10;99.90
26691;DHT22;14307;51.718;8.938;2023-11-22T02:50:51;-0.10;99.90
26691;DHT22;14307;51.718;8.938;2023-11-22T02:53:20;-0.30;99.90
26691;DHT22;14307;51.718;8.938;2023-11-22T02:55:48;-0.40;99.90
26691;DHT22;14307;51.718;8.938;2023-11-22T02:58:16;-0.30;99.90
26691;DHT22;14307;51.718;8.938;2023-11-22T03:00:46;-0.30;99.90
26691;DHT22;14307;51.718;8.938;2023-11-22T03:03:13;-0.30;99.90
26691;DHT22;14307;51.718;8.938;2023-11-22T03:05:40;-0.40;99.90
26691;DHT22;14307;51.718;8.938;2023-11-22T03:08:07;-0.40;99.90
26691;DHT22;14307;51.718;8.938;2023-11-22T03:10:34;-0.40;99.90
26691;DHT22;14307;51.718;8.938;2023-11-22T03:13:02;-0.50;99.90
26691;DHT22;14307;51.718;8.938;2023-11-22T03:15:30;-0.50;99.90
26691;DHT22;14307;51.718;8.938;2023-11-22T03:17:58;-0.30;99.90
26691;DHT22;14307;51.718;8.938;2023-11-22T03:20:25;-0.10;99.90
26691;DHT22;14307;51.718;8.938;2023-11-22T03:22:53;-0.10;99.90
26691;DHT22;14307;51.718;8.938;2023-11-22T03:25:20;-0.20;99.90
26691;DHT22;14307;51.718;8.938;2023-11-22T03:27:47;-0.20;99.90
26691;DHT22;14307;51.718;8.938;2023-11-22T03:30:14;-0.10;99.90
26691;DHT22;14307;51.718;8.938;2023-11-22T03:32:42;-0.30;99.90
26691;DHT22;14307;51.718;8.938;2023-11-22T03:35:10;-0.40;99.90
26691;DHT22;14307;51.718;8.938;2023-11-22T03:37:38;-0.60;99.90
26691;DHT22;14307;51.718;8.938;2023-11-22T03:40:06;-0.60;99.90
26691;DHT22;14307;51.718;8.938;2023-11-22T03:42:32;-0.60;99.90
26691;DHT22;14307;51.718;8.938;2023-11-22T03:44:59;-0.70;99.90
26691;DHT22;14307;51.718;8.938;2023-11-22T03:47:26;-0.70;99.90
26691;DHT22;14307;51.718;8.938;2023-11-22T03:49:53;-0.80;99.90
26691;DHT22;14307;51.718;8.938;2023-11-22T03:52:20;-0.90;99.90
26691;DHT22;14307;51.718;8.938;2023-11-22T03:54:47;-0.90;99.90
26691;DHT22;14307;51.718;8.938;2023-11-22T03:57:13;-1.00;99.90
26691;DHT22;14307;51.718;8.938;2023-11-22T03:59:41;-0.90;99.90
26691;DHT22;14307;51.718;8.938;2023-11-22T04:02:08;-1.00;99.90
26691;DHT22;14307;51.718;8.938;2023-11-22T04:04:36;-0.80;99.90
26691;DHT22;14307;51.718;8.938;2023-11-22T04:07:03;-0.80;99.90
26691;DHT22;14307;51.718;8.938;2023-11-22T04:09:30;-0.90;99.90
26691;DHT22;14307;51.718;8.938;2023-11-22T04:11:57;-1.00;99.90
26691;DHT22;14307;51.718;8.938;2023-11-22T04:14:24;-0.90;99.90
26691;DHT22;14307;51.718;8.938;2023-11-22T04:16:54;-1.00;99.90
26691;DHT22;14307;51.718;8.938;2023-11-22T04:19:21;-1.10;99.90
26691;DHT22;14307;51.718;8.938;2023-11-22T04:21:48;-1.10;99.90
26691;DHT22;14307;51.718;8.938;2023-11-22T04:24:15;-1.10;99.90
26691;DHT22;14307;51.718;8.938;2023-11-22T04:26:45;-1.10;99.90
26691;DHT22;14307;51.718;8.938;2023-11-22T04:29:14;-1.20;99.90
26691;DHT22;14307;51.718;8.938;2023-11-22T04:31:41;-1.20;99.90
26691;DHT22;14307;51.718;8.938;2023-11-22T04:34:08;-1.30;99.90
26691;DHT22;14307;51.718;8.938;2023-11-22T04:36:35;-1.30;99.90
26691;DHT22;14307;51.718;8.938;2023-11-22T04:39:01;-1.40;99.90
26691;DHT22;14307;51.718;8.938;2023-11-22T04:41:30;-1.30;99.90
26691;DHT22;14307;51.718;8.938;2023-11-22T04:43:57;-1.20;99.90
26691;DHT22;14307;51.718;8.938;2023-11-22T04:46:23;-1.20;99.90
26691;DHT22;14307;51.718;8.938;2023-11-22T04:48:51;-1.20;99.90
26691;DHT22;14307;51.718;8.938;2023-11-22T04:51:18;-1.10;99.90
26691;DHT22;14307;51.718;8.938;2023-11-22T04:53:45;-1.20;99.90
26691;DHT22;14307;51.718;8.938;2023-11-22T04:56:12;-1.20;99.90
26691;DHT22;14307;51.718;8.938;2023-11-22T04:58:39;-1.30;99.90
26691;DHT22;14307;51.718;8.938;2023-11-22T05:01:06;-1.30;99.90
26691;DHT22;14307;51.718;8.938;2023-11-22T05:03:33;-1.30;99.90
26691;DHT22;14307;51.718;8.938;2023-11-22T05:06:00;-1.00;99.90
26691;DHT22;14307;51.718;8.938;2023-11-22T05:08:26;-1.00;99.90
26691;DHT22;14307;51.718;8.938;2023-11-22T05:10:54;-1.10;99.90
26691;DHT22;14307;51.718;8.938;2023-11-22T05:13:22;-1.00;99.90
26691;DHT22;14307;51.718;8.938;2023-11-22T05:15:49;-0.90;99.90
26691;DHT22;14307;51.718;8.938;2023-11-22T05:18:17;-0.90;99.90
26691;DHT22;14307;51.718;8.938;2023-11-22T05:20:44;-1.00;99.90
26691;DHT22;14307;51.718;8.938;2023-11-22T05:23:11;-1.20;99.90
26691;DHT22;14307;51.718;8.938;2023-11-22T05:25:40;-1.30;99.90
26691;DHT22;14307;51.718;8.938;2023-11-22T05:28:07;-1.30;99.90
26691;DHT22;14307;51.718;8.938;2023-11-22T05:30:34;-1.30;99.90
26691;DHT22;14307;51.718;8.938;2023-11-22T05:33:01;-1.30;99.90
26691;DHT22;14307;51.718;8.938;2023-11-22T05:35:27;-1.30;99.90
26691;DHT22;14307;51.718;8.938;2023-11-22T05:37:54;-1.40;99.90
26691;DHT22;14307;51.718;8.938;2023-11-22T05:40:21;-1.50;99.90
26691;DHT22;14307;51.718;8.938;2023-11-22T05:42:47;-1.40;99.90
26691;DHT22;14307;51.718;8.938;2023-11-22T05:45:15;-1.30;99.90
26691;DHT22;14307;51.718;8.938;2023-11-22T05:47:41;-1.20;99.90
26691;DHT22;14307;51.718;8.938;2023-11-22T05:50:09;-1.20;99.90
26691;DHT22;14307;51.718;8.938;2023-11-22T05:52:36;-1.20;99.90
26691;DHT22;14307;51.718;8.938;2023-11-22T05:55:04;-1.20;99.90
26691;DHT22;14307;51.718;8.938;2023-11-22T05:57:30;-1.20;99.90
26691;DHT22;14307;51.718;8.938;2023-11-22T05:59:57;-1.20;99.90
26691;DHT22;14307;51.718;8.938;2023-11-22T06:02:24;-1.20;99.90
26691;DHT22;14307;51.718;8.938;2023-11-22T06:04:51;-1.30;99.90
26691;DHT22;14307;51.718;8.938;2023-11-22T06:07:18;-1.30;99.90
26691;DHT22;14307;51.718;8.938;2023-11-22T06:09:45;-1.30;99.90
26691;DHT22;14307;51.718;8.938;2023-11-22T06:12:11;-1.40;99.90
26691;DHT22;14307;51.718;8.938;2023-11-22T06:14:38;-1.40;99.90
26691;DHT22;14307;51.718;8.938;2023-11-22T06:17:05;-1.50;99.90
26691;DHT22;14307;51.718;8.938;2023-11-22T06:19:32;-1.40;99.90
26691;DHT22;14307;51.718;8.938;2023-11-22T06:21:59;-1.40;99.90
26691;DHT22;14307;51.718;8.938;2023-11-22T06:24:28;-1.50;99.90
26691;DHT22;14307;51.718;8.938;2023-11-22T06:26:57;-1.50;99.90
26691;DHT22;14307;51.718;8.938;2023-11-22T06:29:24;-1.70;99.90
26691;DHT22;14307;51.718;8.938;2023-11-22T06:31:51;-1.60;99.90
26691;DHT22;14307;51.718;8.938;2023-11-22T06:34:18;-1.50;99.90
26691;DHT22;14307;51.718;8.938;2023-11-22T06:36:45;-1.30;99.90
26691;DHT22;14307;51.718;8.938;2023-11-22T06:39:12;-1.20;99.90
26691;DHT22;14307;51.718;8.938;2023-11-22T06:41:41;-1.00;99.90
26691;DHT22;14307;51.718;8.938;2023-11-22T06:44:08;-1.00;99.90
26691;DHT22;14307;51.718;8.938;2023-11-22T06:46:36;-0.90;99.90
26691;DHT22;14307;51.718;8.938;2023-11-22T06:49:03;-0.80;99.90
26691;DHT22;14307;51.718;8.938;2023-11-22T06:51:34;-0.80;99.90
26691;DHT22;14307;51.718;8.938;2023-11-22T06:54:01;-0.70;99.90
26691;DHT22;14307;51.718;8.938;2023-11-22T06:56:28;-0.70;99.90
26691;DHT22;14307;51.718;8.938;2023-11-22T06:58:55;-0.70;99.90
26691;DHT22;14307;51.718;8.938;2023-11-22T07:01:24;-0.70;99.90
26691;DHT22;14307;51.718;8.938;2023-11-22T07:03:54;-0.70;99.90
26691;DHT22;14307;51.718;8.938;2023-11-22T07:06:22;-0.70;99.90
26691;DHT22;14307;51.718;8.938;2023-11-22T07:08:52;-0.70;99.90
26691;DHT22;14307;51.718;8.938;2023-11-22T07:11:23;-0.70;99.90
26691;DHT22;14307;51.718;8.938;2023-11-22T07:13:51;-0.60;99.90
26691;DHT22;14307;51.718;8.938;2023-11-22T07:16:21;-0.50;99.90
26691;DHT22;14307;51.718;8.938;2023-11-22T07:18:48;-0.40;99.90
26691;DHT22;14307;51.718;8.938;2023-11-22T07:21:16;-0.30;99.90
26691;DHT22;14307;51.718;8.938;2023-11-22T07:23:43;-0.30;99.90
26691;DHT22;14307;51.718;8.938;2023-11-22T07:26:11;-0.30;99.90
26691;DHT22;14307;51.718;8.938;2023-11-22T07:28:41;-0.30;99.90
26691;DHT22;14307;51.718;8.938;2023-11-22T07:31:09;-0.30;99.90
26691;DHT22;14307;51.718;8.938;2023-11-22T07:33:36;-0.40;99.90
26691;DHT22;14307;51.718;8.938;2023-11-22T07:36:04;-0.30;99.90
26691;DHT22;14307;51.718;8.938;2023-11-22T07:38:31;-0.40;99.90
26691;DHT22;14307;51.718;8.938;2023-11-22T07:40:58;-0.40;99.90
26691;DHT22;14307;51.718;8.938;2023-11-22T07:43:26;-0.40;99.90
26691;DHT22;14307;51.718;8.938;2023-11-22T07:45:53;-0.50;99.90
26691;DHT22;14307;51.718;8.938;2023-11-22T07:48:20;-0.50;99.90
26691;DHT22;14307;51.718;8.938;2023-11-22T07:50:49;-0.40;99.90
26691;DHT22;14307;51.718;8.938;2023-11-22T07:53:16;-0.20;99.90
26691;DHT22;14307;51.718;8.938;2023-11-22T07:55:44;-0.20;99.90
26691;DHT22;14307;51.718;8.938;2023-11-22T07:58:11;-0.10;99.90
26691;DHT22;14307;51.718;8.938;2023-11-22T08:00:38;-0.10;99.90
26691;DHT22;14307;51.718;8.938;2023-11-22T08:03:05;-0.10;99.90
26691;DHT22;14307;51.718;8.938;2023-11-22T08:05:33;-0.10;99.90
26691;DHT22;14307;51.718;8.938;2023-11-22T08:08:04;0.00;99.90
26691;DHT22;14307;51.718;8.938;2023-11-22T08:10:35;0.00;99.90
26691;DHT22;14307;51.718;8.938;2023-11-22T08:13:02;0.10;99.90
26691;DHT22;14307;51.718;8.938;2023-11-22T08:15:30;0.10;99.90
26691;DHT22;14307;51.718;8.938;2023-11-22T08:17:59;0.20;99.90
26691;DHT22;14307;51.718;8.938;2023-11-22T08:20:27;0.30;99.90
26691;DHT22;14307;51.718;8.938;2023-11-22T08:22:57;0.40;99.90
26691;DHT22;14307;51.718;8.938;2023-11-22T08:25:24;0.50;99.90
26691;DHT22;14307;51.718;8.938;2023-11-22T08:27:53;0.70;99.90
26691;DHT22;14307;51.718;8.938;2023-11-22T08:30:20;0.90;99.90
26691;DHT22;14307;51.718;8.938;2023-11-22T08:32:47;1.10;99.90
26691;DHT22;14307;51.718;8.938;2023-11-22T08:35:21;1.30;99.90
26691;DHT22;14307;51.718;8.938;2023-11-22T08:37:50;1.60;99.90
26691;DHT22;14307;51.718;8.938;2023-11-22T08:40:17;1.80;99.90
26691;DHT22;14307;51.718;8.938;2023-11-22T08:42:47;1.80;99.90
26691;DHT22;14307;51.718;8.938;2023-11-22T08:45:15;1.80;99.90
26691;DHT22;14307;51.718;8.938;2023-11-22T08:47:42;1.80;99.90
26691;DHT22;14307;51.718;8.938;2023-11-22T08:50:09;1.60;99.90
26691;DHT22;14307;51.718;8.938;2023-11-22T08:52:40;1.50;99.90
26691;DHT22;14307;51.718;8.938;2023-11-22T08:55:09;1.40;99.90
26691;DHT22;14307;51.718;8.938;2023-11-22T08:57:36;1.30;99.90
26691;DHT22;14307;51.718;8.938;2023-11-22T09:00:07;1.30;99.90
26691;DHT22;14307;51.718;8.938;2023-11-22T09:02:37;1.30;99.90
26691;DHT22;14307;51.718;8.938;2023-11-22T09:05:04;1.40;99.90
26691;DHT22;14307;51.718;8.938;2023-11-22T09:07:35;1.30;99.90
26691;DHT22;14307;51.718;8.938;2023-11-22T09:10:03;1.30;99.90
26691;DHT22;14307;51.718;8.938;2023-11-22T09:12:37;1.30;99.90
26691;DHT22;14307;51.718;8.938;2023-11-22T09:15:09;1.50;99.90
26691;DHT22;14307;51.718;8.938;2023-11-22T09:17:40;1.60;99.90
26691;DHT22;14307;51.718;8.938;2023-11-22T09:20:11;1.70;99.90
26691;DHT22;14307;51.718;8.938;2023-11-22T09:22:45;1.90;99.90
26691;DHT22;14307;51.718;8.938;2023-11-22T09:25:22;2.00;99.90
26691;DHT22;14307;51.718;8.938;2023-11-22T09:27:50;2.00;99.90
26691;DHT22;14307;51.718;8.938;2023-11-22T09:30:22;2.20;99.90
26691;DHT22;14307;51.718;8.938;2023-11-22T09:33:04;2.10;99.90
26691;DHT22;14307;51.718;8.938;2023-11-22T09:35:31;2.20;99.90
26691;DHT22;14307;51.718;8.938;2023-11-22T09:37:59;2.50;99.90
26691;DHT22;14307;51.718;8.938;2023-11-22T09:40:27;2.80;99.90
26691;DHT22;14307;51.718;8.938;2023-11-22T09:42:56;2.80;99.90
26691;DHT22;14307;51.718;8.938;2023-11-22T09:45:24;2.80;99.90
26691;DHT22;14307;51.718;8.938;2023-11-22T09:47:52;2.70;99.90
26691;DHT22;14307;51.718;8.938;2023-11-22T09:52:50;2.30;99.90
26691;DHT22;14307;51.718;8.938;2023-11-22T09:55:21;2.30;99.90
26691;DHT22;14307;51.718;8.938;2023-11-22T09:57:51;2.40;99.90
26691;DHT22;14307;51.718;8.938;2023-11-22T10:00:20;2.30;99.90
26691;DHT22;14307;51.718;8.938;2023-11-22T10:02:48;2.40;99.90
26691;DHT22;14307;51.718;8.938;2023-11-22T10:05:16;2.50;99.90
26691;DHT22;14307;51.718;8.938;2023-11-22T10:07:43;2.40;99.90
26691;DHT22;14307;51.718;8.938;2023-11-22T10:10:15;2.40;99.90
26691;DHT22;14307;51.718;8.938;2023-11-22T10:12:43;2.40;99.90
26691;DHT22;14307;51.718;8.938;2023-11-22T10:15:16;2.50;99.90
26691;DHT22;14307;51.718;8.938;2023-11-22T10:17:59;2.40;99.90
26691;DHT22;14307;51.718;8.938;2023-11-22T10:20:38;2.50;99.90
26691;DHT22;14307;51.718;8.938;2023-11-22T10:23:09;2.60;99.90
26691;DHT22;14307;51.718;8.938;2023-11-22T10:25:45;2.80;99.90
26691;DHT22;14307;51.718;8.938;2023-11-22T10:28:14;2.80;99.90
26691;DHT22;14307;51.718;8.938;2023-11-22T10:30:41;2.60;99.90
26691;DHT22;14307;51.718;8.938;2023-11-22T10:33:10;2.20;99.90
26691;DHT22;14307;51.718;8.938;2023-11-22T10:35:47;2.30;99.90
26691;DHT22;14307;51.718;8.938;2023-11-22T10:38:21;2.30;99.90
26691;DHT22;14307;51.718;8.938;2023-11-22T10:40:48;2.30;99.90
26691;DHT22;14307;51.718;8.938;2023-11-22T10:43:16;2.30;99.90
26691;DHT22;14307;51.718;8.938;2023-11-22T10:45:44;2.10;99.90
26691;DHT22;14307;51.718;8.938;2023-11-22T10:48:18;2.10;99.90
26691;DHT22;14307;51.718;8.938;2023-11-22T10:50:48;2.20;99.90
26691;DHT22;14307;51.718;8.938;2023-11-22T10:53:16;2.40;99.90
26691;DHT22;14307;51.718;8.938;2023-11-22T10:55:48;2.40;99.90
26691;DHT22;14307;51.718;8.938;2023-11-22T10:58:18;2.30;99.90
26691;DHT22;14307;51.718;8.938;2023-11-22T11:00:51;2.30;99.90
26691;DHT22;14307;51.718;8.938;2023-11-22T11:03:18;2.30;99.90
26691;DHT22;14307;51.718;8.938;2023-11-22T11:05:56;2.50;99.90
26691;DHT22;14307;51.718;8.938;2023-11-22T11:08:26;2.60;99.90
26691;DHT22;14307;51.718;8.938;2023-11-22T11:10:54;2.70;99.90
26691;DHT22;14307;51.718;8.938;2023-11-22T11:13:25;2.20;99.90
26691;DHT22;14307;51.718;8.938;2023-11-22T11:15:54;2.20;99.90
26691;DHT22;14307;51.718;8.938;2023-11-22T11:18:23;2.30;99.90
26691;DHT22;14307;51.718;8.938;2023-11-22T11:20:55;2.30;99.90
26691;DHT22;14307;51.718;8.938;2023-11-22T11:23:24;2.40;99.90
26691;DHT22;14307;51.718;8.938;2023-11-22T11:25:58;2.30;99.90
26691;DHT22;14307;51.718;8.938;2023-11-22T11:28:45;2.40;99.90
26691;DHT22;14307;51.718;8.938;2023-11-22T11:31:13;2.40;99.90
26691;DHT22;14307;51.718;8.938;2023-11-22T11:36:38;2.20;99.90
26691;DHT22;14307;51.718;8.938;2023-11-22T11:39:07;2.30;99.90
26691;DHT22;14307;51.718;8.938;2023-11-22T11:41:41;2.40;99.90
26691;DHT22;14307;51.718;8.938;2023-11-22T11:44:09;2.40;99.90
26691;DHT22;14307;51.718;8.938;2023-11-22T11:46:37;2.50;99.90
26691;DHT22;14307;51.718;8.938;2023-11-22T11:49:11;2.60;99.90
26691;DHT22;14307;51.718;8.938;2023-11-22T11:51:39;2.60;99.90
26691;DHT22;14307;51.718;8.938;2023-11-22T11:54:06;2.50;99.90
26691;DHT22;14307;51.718;8.938;2023-11-22T11:56:34;2.70;99.90
26691;DHT22;14307;51.718;8.938;2023-11-22T11:59:02;2.70;99.90
26691;DHT22;14307;51.718;8.938;2023-11-22T12:01:30;2.80;99.90
26691;DHT22;14307;51.718;8.938;2023-11-22T12:04:02;2.90;99.90
26691;DHT22;14307;51.718;8.938;2023-11-22T12:06:31;3.10;99.90
26691;DHT22;14307;51.718;8.938;2023-11-22T12:09:01;3.30;99.90
26691;DHT22;14307;51.718;8.938;2023-11-22T12:11:30;3.30;99.90
26691;DHT22;14307;51.718;8.938;2023-11-22T12:13:58;3.30;99.90
26691;DHT22;14307;51.718;8.938;2023-11-22T12:16:25;3.30;99.90
26691;DHT22;14307;51.718;8.938;2023-11-22T12:18:54;3.50;99.90
26691;DHT22;14307;51.718;8.938;2023-11-22T12:21:22;3.40;99.90
26691;DHT22;14307;51.718;8.938;2023-11-22T12:23:50;3.40;99.90
26691;DHT22;14307;51.718;8.938;2023-11-22T12:26:21;3.40;99.90
26691;DHT22;14307;51.718;8.938;2023-11-22T12:28:49;3.50;99.90
26691;DHT22;14307;51.718;8.938;2023-11-22T12:31:30;3.50;99.90
26691;DHT22;14307;51.718;8.938;2023-11-22T12:34:04;3.60;99.90
26691;DHT22;14307;51.718;8.938;2023-11-22T12:36:33;3.50;99.90
26691;DHT22;14307;51.718;8.938;2023-11-22T12:39:02;3.30;99.90
26691;DHT22;14307;51.718;8.938;2023-11-22T12:41:30;3.20;99.90
26691;DHT22;14307;51.718;8.938;2023-11-22T12:44:06;3.40;99.90
26691;DHT22;14307;51.718;8.938;2023-11-22T12:46:52;3.40;99.90
26691;DHT22;14307;51.718;8.938;2023-11-22T12:49:28;3.60;99.90
26691;DHT22;14307;51.718;8.938;2023-11-22T12:51:56;3.70;99.90
26691;DHT22;14307;51.718;8.938;2023-11-22T12:54:26;3.60;99.90
26691;DHT22;14307;51.718;8.938;2023-11-22T12:56:54;3.70;99.90
26691;DHT22;14307;51.718;8.938;2023-11-22T12:59:26;3.60;99.90
26691;DHT22;14307;51.718;8.938;2023-11-22T13:02:04;3.60;99.90
26691;DHT22;14307;51.718;8.938;2023-11-22T13:04:32;3.40;99.90
26691;DHT22;14307;51.718;8.938;2023-11-22T13:07:24;3.30;99.90
26691;DHT22;14307;51.718;8.938;2023-11-22T13:09:57;3.20;99.90
26691;DHT22;14307;51.718;8.938;2023-11-22T13:12:24;3.20;99.90
26691;DHT22;14307;51.718;8.938;2023-11-22T13:14:51;3.10;99.90
26691;DHT22;14307;51.718;8.938;2023-11-22T13:17:18;3.10;99.90
26691;DHT22;14307;51.718;8.938;2023-11-22T13:19:45;3.10;99.90
26691;DHT22;14307;51.718;8.938;2023-11-22T13:22:14;3.00;99.90
26691;DHT22;14307;51.718;8.938;2023-11-22T13:24:43;3.00;99.90
26691;DHT22;14307;51.718;8.938;2023-11-22T13:27:10;3.00;99.90
26691;DHT22;14307;51.718;8.938;2023-11-22T13:29:37;3.20;99.90
26691;DHT22;14307;51.718;8.938;2023-11-22T13:32:10;3.10;99.90
26691;DHT22;14307;51.718;8.938;2023-11-22T13:34:59;3.00;99.90
26691;DHT22;14307;51.718;8.938;2023-11-22T13:37:32;3.00;99.90
26691;DHT22;14307;51.718;8.938;2023-11-22T13:40:04;3.00;99.90
26691;DHT22;14307;51.718;8.938;2023-11-22T13:42:47;3.00;99.90
26691;DHT22;14307;51.718;8.938;2023-11-22T13:45:17;3.00;99.90
26691;DHT22;14307;51.718;8.938;2023-11-22T13:47:46;3.00;99.90
26691;DHT22;14307;51.718;8.938;2023-11-22T13:50:17;3.10;99.90
26691;DHT22;14307;51.718;8.938;2023-11-22T13:52:54;3.20;99.90
26691;DHT22;14307;51.718;8.938;2023-11-22T13:55:22;3.20;99.90
26691;DHT22;14307;51.718;8.938;2023-11-22T13:57:50;3.10;99.90
26691;DHT22;14307;51.718;8.938;2023-11-22T14:00:22;3.10;99.90
26691;DHT22;14307;51.718;8.938;2023-11-22T14:02:50;3.00;99.90
26691;DHT22;14307;51.718;8.938;2023-11-22T14:05:24;3.00;99.90
26691;DHT22;14307;51.718;8.938;2023-11-22T14:07:52;3.00;99.90
26691;DHT22;14307;51.718;8.938;2023-11-22T14:10:19;3.00;99.90
26691;DHT22;14307;51.718;8.938;2023-11-22T14:12:46;2.90;99.90
26691;DHT22;14307;51.718;8.938;2023-11-22T14:15:13;2.90;99.90
26691;DHT22;14307;51.718;8.938;2023-11-22T14:17:44;2.90;99.90
26691;DHT22;14307;51.718;8.938;2023-11-22T14:20:12;2.90;99.90
26691;DHT22;14307;51.718;8.938;2023-11-22T14:22:41;2.90;99.90
26691;DHT22;14307;51.718;8.938;2023-11-22T14:25:12;2.90;99.90
26691;DHT22;14307;51.718;8.938;2023-11-22T14:27:44;2.90;99.90
26691;DHT22;14307;51.718;8.938;2023-11-22T14:30:12;3.00;99.90
26691;DHT22;14307;51.718;8.938;2023-11-22T14:32:43;2.90;99.90
26691;DHT22;14307;51.718;8.938;2023-11-22T14:35:11;3.00;99.90
26691;DHT22;14307;51.718;8.938;2023-11-22T14:37:39;2.90;99.90
26691;DHT22;14307;51.718;8.938;2023-11-22T14:40:09;2.90;99.90
26691;DHT22;14307;51.718;8.938;2023-11-22T14:42:44;2.90;99.90
26691;DHT22;14307;51.718;8.938;2023-11-22T14:45:21;2.90;99.90
26691;DHT22;14307;51.718;8.938;2023-11-22T14:47:48;2.90;99.90
26691;DHT22;14307;51.718;8.938;2023-11-22T14:50:17;2.80;99.90
26691;DHT22;14307;51.718;8.938;2023-11-22T14:52:50;2.80;99.90
26691;DHT22;14307;51.718;8.938;2023-11-22T14:55:18;2.70;99.90
26691;DHT22;14307;51.718;8.938;2023-11-22T14:57:49;2.70;99.90
26691;DHT22;14307;51.718;8.938;2023-11-22T15:00:23;2.60;99.90
26691;DHT22;14307;51.718;8.938;2023-11-22T15:02:53;2.70;99.90
26691;DHT22;14307;51.718;8.938;2023-11-22T15:05:24;2.70;99.90
26691;DHT22;14307;51.718;8.938;2023-11-22T15:07:58;2.60;99.90
26691;DHT22;14307;51.718;8.938;2023-11-22T15:10:26;2.60;99.90
26691;DHT22;14307;51.718;8.938;2023-11-22T15:12:53;2.60;99.90
26691;DHT22;14307;51.718;8.938;2023-11-22T15:15:32;2.60;99.90
26691;DHT22;14307;51.718;8.938;2023-11-22T15:17:58;2.50;99.90
26691;DHT22;14307;51.718;8.938;2023-11-22T15:20:25;2.50;99.90
26691;DHT22;14307;51.718;8.938;2023-11-22T15:22:53;2.50;99.90
26691;DHT22;14307;51.718;8.938;2023-11-22T15:25:20;2.50;99.90
26691;DHT22;14307;51.718;8.938;2023-11-22T15:27:47;2.40;99.90
26691;DHT22;14307;51.718;8.938;2023-11-22T15:30:14;2.40;99.90
26691;DHT22;14307;51.718;8.938;2023-11-22T15:32:48;2.40;99.90
26691;DHT22;14307;51.718;8.938;2023-11-22T15:35:16;2.40;99.90
26691;DHT22;14307;51.718;8.938;2023-11-22T15:37:44;2.40;99.90
26691;DHT22;14307;51.718;8.938;2023-11-22T15:40:11;2.40;99.90
26691;DHT22;14307;51.718;8.938;2023-11-22T15:42:39;2.40;99.90
26691;DHT22;14307;51.718;8.938;2023-11-22T15:45:07;2.40;99.90
26691;DHT22;14307;51.718;8.938;2023-11-22T15:47:34;2.40;99.90
26691;DHT22;14307;51.718;8.938;2023-11-22T15:50:03;2.40;99.90
26691;DHT22;14307;51.718;8.938;2023-11-22T15:52:33;2.40;99.90
26691;DHT22;14307;51.718;8.938;2023-11-22T15:55:00;2.40;99.90